sensor_id;sensor_type;location;lat;lon;timestamp;pressure;altitude;pressure_sealevel;temperature;humidity
6034;BME280;3045;43.226;27.858;2023-07-16T00:02:04;-9599.03;;;22.64;100.00
6034;BME280;3045;43.226;27.858;2023-07-16T00:04:31;-9922.00;;;22.47;100.00
6034;BME280;3045;43.226;27.858;2023-07-16T00:06:59;-11543.44;;;22.35;100.00
6034;BME280;3045;43.226;27.858;2023-07-16T00:09:26;-12193.38;;;22.43;100.00
6034;BME280;3045;43.226;27.858;2023-07-16T00:11:53;-9920.78;;;22.35;100.00
6034;BME280;3045;43.226;27.858;2023-07-16T00:14:20;-9596.59;;;22.39;100.00
6034;BME280;3045;43.226;27.858;2023-07-16T00:16:48;-8948.06;;;22.49;100.00
6034;BME280;3045;43.226;27.858;2023-07-16T00:19:15;-10572.06;;;22.54;100.00
6034;BME280;3045;43.226;27.858;2023-07-16T00:21:42;-9597.50;;;22.49;100.00
6034;BME280;3045;43.226;27.858;2023-07-16T00:24:09;-11220.06;;;22.44;100.00
6034;BME280;3045;43.226;27.858;2023-07-16T00:26:36;-10894.69;;;22.37;100.00
6034;BME280;3045;43.226;27.858;2023-07-16T00:29:02;-12513.75;;;22.14;100.00
6034;BME280;3045;43.226;27.858;2023-07-16T00:31:29;-11542.28;;;22.25;100.00
6034;BME280;3045;43.226;27.858;2023-07-16T00:33:58;-9596.44;;;22.38;100.00
6034;BME280;3045;43.226;27.858;2023-07-16T00:36:25;-8622.47;;;22.40;100.00
6034;BME280;3045;43.226;27.858;2023-07-16T00:38:51;-8622.41;;;22.39;100.00
6034;BME280;3045;43.226;27.858;2023-07-16T00:41:18;-8946.94;;;22.36;100.00
6034;BME280;3045;43.226;27.858;2023-07-16T00:43:45;-10244.84;;;22.29;100.00
6034;BME280;3045;43.226;27.858;2023-07-16T00:46:12;-10894.81;;;22.38;100.00
6034;BME280;3045;43.226;27.858;2023-07-16T00:48:40;-11219.03;;;22.35;100.00
6034;BME280;3045;43.226;27.858;2023-07-16T00:51:09;-11220.94;;;22.51;100.00
6034;BME280;3045;43.226;27.858;2023-07-16T00:53:35;-11546.25;;;22.57;100.00
6034;BME280;3045;43.226;27.858;2023-07-16T00:56:03;-11221.91;;;22.59;100.00
6034;BME280;3045;43.226;27.858;2023-07-16T00:58:30;-11219.53;;;22.39;100.00
6034;BME280;3045;43.226;27.858;2023-07-16T01:00:56;-11544.97;;;22.47;100.00
6034;BME280;3045;43.226;27.858;2023-07-16T01:03:23;-13164.66;;;22.30;100.00
6034;BME280;3045;43.226;27.858;2023-07-16T01:05:57;-13162.34;;;22.15;100.00
6034;BME280;3045;43.226;27.858;2023-07-16T01:08:31;-13809.00;;;22.05;100.00
6034;BME280;3045;43.226;27.858;2023-07-16T01:11:00;-11864.25;;;22.07;100.00
6034;BME280;3045;43.226;27.858;2023-07-16T01:13:28;-11540.22;;;22.09;100.00
6034;BME280;3045;43.226;27.858;2023-07-16T01:15:55;-11216.94;;;22.18;100.00
6034;BME280;3045;43.226;27.858;2023-07-16T01:18:22;-11539.94;;;22.07;100.00
6034;BME280;3045;43.226;27.858;2023-07-16T01:20:49;-12513.69;;;22.14;100.00
6034;BME280;3045;43.226;27.858;2023-07-16T01:23:30;-12834.25;;;21.89;100.00
6034;BME280;3045;43.226;27.858;2023-07-16T01:26:08;-13481.38;;;21.83;100.00
6034;BME280;3045;43.226;27.858;2023-07-16T01:29:24;-13802.97;;;21.68;100.00
6034;BME280;3045;43.226;27.858;2023-07-16T01:31:55;-13479.88;;;21.73;100.00
6034;BME280;3045;43.226;27.858;2023-07-16T01:34:24;-12833.94;;;21.87;100.00
6034;BME280;3045;43.226;27.858;2023-07-16T01:36:53;-12510.72;;;21.93;100.00
6034;BME280;3045;43.226;27.858;2023-07-16T01:39:20;-13158.38;;;21.90;100.00
6034;BME280;3045;43.226;27.858;2023-07-16T01:41:47;-13156.44;;;21.77;100.00
6034;BME280;3045;43.226;27.858;2023-07-16T01:44:14;-12837.53;;;22.11;100.00
6034;BME280;3045;43.226;27.858;2023-07-16T01:46:42;-12191.44;;;22.28;100.00
6034;BME280;3045;43.226;27.858;2023-07-16T01:49:09;-11541.50;;;22.19;100.00
6034;BME280;3045;43.226;27.858;2023-07-16T01:51:36;-12514.53;;;22.20;100.00
6034;BME280;3045;43.226;27.858;2023-07-16T01:54:03;-13483.88;;;21.99;100.00
6034;BME280;3045;43.226;27.858;2023-07-16T01:56:29;-14129.97;;;21.87;100.00
6034;BME280;3045;43.226;27.858;2023-07-16T01:58:56;-14452.50;;;21.79;100.00
6034;BME280;3045;43.226;27.858;2023-07-16T02:01:23;-13806.50;;;21.90;100.00
6034;BME280;3045;43.226;27.858;2023-07-16T02:03:51;-14129.13;;;21.82;100.00
6034;BME280;3045;43.226;27.858;2023-07-16T02:06:18;-13479.47;;;21.71;100.00
6034;BME280;3045;43.226;27.858;2023-07-16T02:08:45;-13159.47;;;21.97;100.00
6034;BME280;3045;43.226;27.858;2023-07-16T02:11:12;-14455.50;;;21.96;100.00
6034;BME280;3045;43.226;27.858;2023-07-16T02:13:39;-14128.53;;;21.78;100.00
6034;BME280;3045;43.226;27.858;2023-07-16T02:16:05;-14132.72;;;22.03;100.00
6034;BME280;3045;43.226;27.858;2023-07-16T02:18:32;-14133.41;;;22.07;100.00
6034;BME280;3045;43.226;27.858;2023-07-16T02:21:00;-14456.91;;;22.04;100.00
6034;BME280;3045;43.226;27.858;2023-07-16T02:23:28;-14458.41;;;22.13;100.00
6034;BME280;3045;43.226;27.858;2023-07-16T02:25:54;-15106.88;;;22.15;100.00
6034;BME280;3045;43.226;27.858;2023-07-16T02:28:21;-15103.34;;;21.96;100.00
6034;BME280;3045;43.226;27.858;2023-07-16T02:30:49;-15103.06;;;21.95;100.00
6034;BME280;3045;43.226;27.858;2023-07-16T02:33:16;-15748.53;;;21.83;100.00
6034;BME280;3045;43.226;27.858;2023-07-16T02:35:46;-15748.13;;;21.81;100.00
6034;BME280;3045;43.226;27.858;2023-07-16T02:38:15;-15102.06;;;21.89;100.00
6034;BME280;3045;43.226;27.858;2023-07-16T02:40:43;-15426.84;;;21.94;100.00
6034;BME280;3045;43.226;27.858;2023-07-16T02:43:10;-14452.50;;;21.79;100.00
6034;BME280;3045;43.226;27.858;2023-07-16T02:45:38;-15097.31;;;21.63;100.00
6034;BME280;3045;43.226;27.858;2023-07-16T02:48:05;-14774.47;;;21.68;100.00
6034;BME280;3045;43.226;27.858;2023-07-16T02:50:33;-15424.94;;;21.84;100.00
6034;BME280;3045;43.226;27.858;2023-07-16T02:53:01;-15100.75;;;21.82;100.00
6034;BME280;3045;43.226;27.858;2023-07-16T02:55:29;-15101.31;;;21.85;100.00
6034;BME280;3045;43.226;27.858;2023-07-16T02:57:56;-14451.72;;;21.74;100.00
6034;BME280;3045;43.226;27.858;2023-07-16T03:00:23;-15415.00;;;21.31;100.00
6034;BME280;3045;43.226;27.858;2023-07-16T03:02:50;-15416.03;;;21.37;100.00
6034;BME280;3045;43.226;27.858;2023-07-16T03:05:17;-15420.44;;;21.60;100.00
6034;BME280;3045;43.226;27.858;2023-07-16T03:07:44;-15420.16;;;21.59;100.00
6034;BME280;3045;43.226;27.858;2023-07-16T03:10:11;-15425.13;;;21.85;100.00
6034;BME280;3045;43.226;27.858;2023-07-16T03:12:39;-15102.81;;;21.93;100.00
6034;BME280;3045;43.226;27.858;2023-07-16T03:15:07;-15425.72;;;21.88;100.00
6034;BME280;3045;43.226;27.858;2023-07-16T03:17:34;-15753.06;;;22.06;100.00
6034;BME280;3045;43.226;27.858;2023-07-16T03:20:02;-16080.53;;;22.24;100.00
6034;BME280;3045;43.226;27.858;2023-07-16T03:22:29;-16740.00;;;22.80;100.00
6034;BME280;3045;43.226;27.858;2023-07-16T03:24:56;-11880.75;;;23.32;100.00
6034;BME280;3045;43.226;27.858;2023-07-16T03:27:23;-485.41;;;24.00;100.00
6034;BME280;3045;43.226;27.858;2023-07-16T03:29:51;14579.13;;;24.53;100.00
6034;BME280;3045;43.226;27.858;2023-07-16T03:32:18;27084.66;;;24.76;100.00
6034;BME280;3045;43.226;27.858;2023-07-16T03:34:45;33697.56;;;25.02;100.00
6034;BME280;3045;43.226;27.858;2023-07-16T03:37:12;25442.97;;;24.88;100.00
6034;BME280;3045;43.226;27.858;2023-07-16T03:39:39;19838.53;;;24.65;100.00
6034;BME280;3045;43.226;27.858;2023-07-16T03:42:06;21817.22;;;24.79;100.00
6034;BME280;3045;43.226;27.858;2023-07-16T03:44:32;22477.44;;;24.84;100.00
6034;BME280;3045;43.226;27.858;2023-07-16T03:47:01;19521.13;;;24.96;100.00
6034;BME280;3045;43.226;27.858;2023-07-16T03:49:27;21828.69;;;25.07;100.00
6034;BME280;3045;43.226;27.858;2023-07-16T03:51:54;23480.00;;;25.19;100.00
6034;BME280;3045;43.226;27.858;2023-07-16T03:54:21;28443.28;;;25.55;100.00
6034;BME280;3045;43.226;27.858;2023-07-16T03:56:48;39693.44;;;25.67;100.00
6034;BME280;3045;43.226;27.858;2023-07-16T03:59:15;45011.09;;;25.84;100.00
6034;BME280;3045;43.226;27.858;2023-07-16T04:01:42;51634.16;;;25.61;100.00
6034;BME280;3045;43.226;27.858;2023-07-16T04:04:10;66039.84;;;26.34;100.00
6034;BME280;3045;43.226;27.858;2023-07-16T04:06:37;98690.53;;;26.82;100.00
6034;BME280;3045;43.226;27.858;2023-07-16T04:09:04;130981.69;;;27.13;100.00
6034;BME280;3045;43.226;27.858;2023-07-16T04:11:31;146547.38;;;27.17;100.00
6034;BME280;3045;43.226;27.858;2023-07-16T04:13:57;136423.69;;;27.06;100.00
6034;BME280;3045;43.226;27.858;2023-07-16T04:16:24;133668.75;;;26.95;100.00
6034;BME280;3045;43.226;27.858;2023-07-16T04:18:51;124122.78;;;26.91;100.00
6034;BME280;3045;43.226;27.858;2023-07-16T04:21:19;108157.44;;;26.82;100.00
6034;BME280;3045;43.226;27.858;2023-07-16T04:23:46;101378.25;;;26.74;100.00
6034;BME280;3045;43.226;27.858;2023-07-16T04:26:13;96643.31;;;26.69;100.00
6034;BME280;3045;43.226;27.858;2023-07-16T04:28:40;95999.38;;;26.88;100.00
6034;BME280;3045;43.226;27.858;2023-07-16T04:31:07;106837.59;;;27.02;100.00
6034;BME280;3045;43.226;27.858;2023-07-16T04:33:33;115673.94;;;27.14;100.00
6034;BME280;3045;43.226;27.858;2023-07-16T04:36:00;139570.16;;;27.37;100.00
6034;BME280;3045;43.226;27.858;2023-07-16T04:38:28;137899.28;;;27.54;100.00
6034;BME280;3045;43.226;27.858;2023-07-16T04:40:55;153022.09;;;27.75;100.00
6034;BME280;3045;43.226;27.858;2023-07-16T04:43:22;153015.66;;;27.73;100.00
6034;BME280;3045;43.226;27.858;2023-07-16T04:45:49;153100.13;;;28.06;100.00
6034;BME280;3045;43.226;27.858;2023-07-16T04:48:16;153125.78;;;28.16;100.00
6034;BME280;3045;43.226;27.858;2023-07-16T04:50:43;153170.59;;;28.34;100.00
6034;BME280;3045;43.226;27.858;2023-07-16T04:53:10;153210.25;;;28.49;100.00
6034;BME280;3045;43.226;27.858;2023-07-16T04:55:38;153233.31;;;28.58;100.00
6034;BME280;3045;43.226;27.858;2023-07-16T04:58:06;153275.63;;;28.75;100.00
6034;BME280;3045;43.226;27.858;2023-07-16T05:00:33;153306.34;;;28.87;100.00
6034;BME280;3045;43.226;27.858;2023-07-16T05:02:59;153284.56;;;28.79;100.00
6034;BME280;3045;43.226;27.858;2023-07-16T05:05:27;153253.81;;;28.67;100.00
6034;BME280;3045;43.226;27.858;2023-07-16T05:07:53;153237.19;;;28.60;100.00
6034;BME280;3045;43.226;27.858;2023-07-16T05:10:20;153284.56;;;28.79;100.00
6034;BME280;3045;43.226;27.858;2023-07-16T05:12:49;153271.75;;;28.74;100.00
6034;BME280;3045;43.226;27.858;2023-07-16T05:15:16;153264.09;;;28.71;100.00
6034;BME280;3045;43.226;27.858;2023-07-16T05:17:43;153325.53;;;28.95;100.00
6034;BME280;3045;43.226;27.858;2023-07-16T05:20:10;153329.41;;;28.96;100.00
6034;BME280;3045;43.226;27.858;2023-07-16T05:22:37;153385.78;;;29.19;100.00
6034;BME280;3045;43.226;27.858;2023-07-16T05:25:05;153390.88;;;29.21;100.00
6034;BME280;3045;43.226;27.858;2023-07-16T05:27:32;153425.50;;;29.34;100.00
6034;BME280;3045;43.226;27.858;2023-07-16T05:30:00;153282.00;;;28.78;100.00
6034;BME280;3045;43.226;27.858;2023-07-16T05:32:27;153376.81;;;29.15;100.00
6034;BME280;3045;43.226;27.858;2023-07-16T05:34:54;153394.72;;;29.22;100.00
6034;BME280;3045;43.226;27.858;2023-07-16T05:37:21;153451.16;;;29.44;100.00
6034;BME280;3045;43.226;27.858;2023-07-16T05:39:47;153525.44;;;29.74;100.00
6034;BME280;3045;43.226;27.858;2023-07-16T05:42:14;153584.41;;;29.97;100.00
6034;BME280;3045;43.226;27.858;2023-07-16T05:44:41;153610.06;;;30.07;100.00
6034;BME280;3045;43.226;27.858;2023-07-16T05:47:11;153640.81;;;30.19;100.00
6034;BME280;3045;43.226;27.858;2023-07-16T05:49:38;153671.56;;;30.31;100.00
6034;BME280;3045;43.226;27.858;2023-07-16T05:52:05;153737.00;;;30.57;100.00
6034;BME280;3045;43.226;27.858;2023-07-16T05:54:33;153716.47;;;30.49;100.00
6034;BME280;3045;43.226;27.858;2023-07-16T05:57:00;153735.69;;;30.57;100.00
6034;BME280;3045;43.226;27.858;2023-07-16T05:59:27;153692.06;;;30.39;100.00
6034;BME280;3045;43.226;27.858;2023-07-16T06:01:54;153704.94;;;30.45;100.00
6034;BME280;3045;43.226;27.858;2023-07-16T06:04:24;153754.91;;;30.64;100.00
6034;BME280;3045;43.226;27.858;2023-07-16T06:06:51;153856.28;;;31.04;100.00
6034;BME280;3045;43.226;27.858;2023-07-16T06:09:18;153898.59;;;31.21;100.00
6034;BME280;3045;43.226;27.858;2023-07-16T06:11:46;153888.31;;;31.17;100.00
6034;BME280;3045;43.226;27.858;2023-07-16T06:14:13;153969.09;;;31.49;100.00
6034;BME280;3045;43.226;27.858;2023-07-16T06:16:40;154024.31;;;31.70;100.00
6034;BME280;3045;43.226;27.858;2023-07-16T06:19:07;154128.31;;;32.11;100.00
6034;BME280;3045;43.226;27.858;2023-07-16T06:21:35;154277.19;;;32.70;100.00
6034;BME280;3045;43.226;27.858;2023-07-16T06:24:02;154387.66;;;33.14;100.00
6034;BME280;3045;43.226;27.858;2023-07-16T06:26:29;154464.69;;;33.44;100.00
6034;BME280;3045;43.226;27.858;2023-07-16T06:28:56;154498.03;;;33.57;100.00
6034;BME280;3045;43.226;27.858;2023-07-16T06:31:22;154519.91;;;33.66;100.00
6034;BME280;3045;43.226;27.858;2023-07-16T06:33:49;154652.28;;;34.18;100.00
6034;BME280;3045;43.226;27.858;2023-07-16T06:36:16;154549.50;;;33.77;100.00
6034;BME280;3045;43.226;27.858;2023-07-16T06:38:45;154436.41;;;33.33;100.00
6034;BME280;3045;43.226;27.858;2023-07-16T06:41:13;154474.97;;;33.48;100.00
6034;BME280;3045;43.226;27.858;2023-07-16T06:43:39;154409.47;;;33.22;100.00
6034;BME280;3045;43.226;27.858;2023-07-16T06:46:06;154379.88;;;33.11;100.00
6034;BME280;3045;43.226;27.858;2023-07-16T06:48:33;154400.44;;;33.19;100.00
6034;BME280;3045;43.226;27.858;2023-07-16T06:51:00;154401.75;;;33.19;100.00
6034;BME280;3045;43.226;27.858;2023-07-16T06:53:27;154656.16;;;34.19;100.00
6034;BME280;3045;43.226;27.858;2023-07-16T06:55:55;154852.78;;;34.97;93.21
6034;BME280;3045;43.226;27.858;2023-07-16T06:58:30;154816.78;;;34.82;87.10
6034;BME280;3045;43.226;27.858;2023-07-16T07:00:57;154887.44;;;35.10;84.07
6034;BME280;3045;43.226;27.858;2023-07-16T07:03:24;154698.53;;;34.36;88.63
6034;BME280;3045;43.226;27.858;2023-07-16T07:05:51;154692.06;;;34.33;92.34
6034;BME280;3045;43.226;27.858;2023-07-16T07:08:18;154652.28;;;34.18;94.40
6034;BME280;3045;43.226;27.858;2023-07-16T07:10:46;154615.00;;;34.03;93.78
6034;BME280;3045;43.226;27.858;2023-07-16T07:13:14;154582.88;;;33.90;96.46
6034;BME280;3045;43.226;27.858;2023-07-16T07:15:42;154544.31;;;33.75;100.00
6034;BME280;3045;43.226;27.858;2023-07-16T07:18:08;154572.56;;;33.86;100.00
6034;BME280;3045;43.226;27.858;2023-07-16T07:20:35;154498.03;;;33.57;100.00
6034;BME280;3045;43.226;27.858;2023-07-16T07:23:02;154430.00;;;33.30;100.00
6034;BME280;3045;43.226;27.858;2023-07-16T07:25:30;154413.31;;;33.24;100.00
6034;BME280;3045;43.226;27.858;2023-07-16T07:27:57;154367.06;;;33.05;100.00
6034;BME280;3045;43.226;27.858;2023-07-16T07:30:26;154374.75;;;33.08;100.00
6034;BME280;3045;43.226;27.858;2023-07-16T07:32:52;154130.84;;;32.12;100.00
6034;BME280;3045;43.226;27.858;2023-07-16T07:35:19;154012.75;;;31.66;100.00
6034;BME280;3045;43.226;27.858;2023-07-16T07:37:46;154089.72;;;31.96;100.00
6034;BME280;3045;43.226;27.858;2023-07-16T07:40:14;154204.00;;;32.41;100.00
6034;BME280;3045;43.226;27.858;2023-07-16T07:42:41;154223.25;;;32.49;100.00
6034;BME280;3045;43.226;27.858;2023-07-16T07:45:08;154111.53;;;32.05;100.00
6034;BME280;3045;43.226;27.858;2023-07-16T07:47:37;153916.53;;;31.28;100.00
6034;BME280;3045;43.226;27.858;2023-07-16T07:50:05;153952.44;;;31.42;100.00
6034;BME280;3045;43.226;27.858;2023-07-16T07:52:32;153921.66;;;31.30;100.00
6034;BME280;3045;43.226;27.858;2023-07-16T07:54:58;153915.22;;;31.27;100.00
6034;BME280;3045;43.226;27.858;2023-07-16T07:57:25;153797.22;;;30.81;100.00
6034;BME280;3045;43.226;27.858;2023-07-16T07:59:52;153871.69;;;31.10;100.00
6034;BME280;3045;43.226;27.858;2023-07-16T08:02:23;153862.66;;;31.07;100.00
6034;BME280;3045;43.226;27.858;2023-07-16T08:04:51;153881.94;;;31.14;83.55
6034;BME280;3045;43.226;27.858;2023-07-16T08:07:18;153937.03;;;31.36;100.00
6034;BME280;3045;43.226;27.858;2023-07-16T08:09:45;153902.44;;;31.22;100.00
6034;BME280;3045;43.226;27.858;2023-07-16T08:12:13;153903.75;;;31.23;100.00
6034;BME280;3045;43.226;27.858;2023-07-16T08:14:40;154020.50;;;31.69;100.00
6034;BME280;3045;43.226;27.858;2023-07-16T08:17:07;154125.72;;;32.10;63.17
6034;BME280;3045;43.226;27.858;2023-07-16T08:19:34;154083.34;;;31.94;64.67
6034;BME280;3045;43.226;27.858;2023-07-16T08:22:02;154076.91;;;31.91;59.02
6034;BME280;3045;43.226;27.858;2023-07-16T08:24:29;153971.69;;;31.50;72.96
6034;BME280;3045;43.226;27.858;2023-07-16T08:26:56;153828.03;;;30.93;88.54
6034;BME280;3045;43.226;27.858;2023-07-16T08:29:23;153822.88;;;30.91;91.34
6034;BME280;3045;43.226;27.858;2023-07-16T08:31:50;153866.53;;;31.08;88.22
6034;BME280;3045;43.226;27.858;2023-07-16T08:34:17;153776.72;;;30.73;85.48
6034;BME280;3045;43.226;27.858;2023-07-16T08:36:44;153712.63;;;30.48;99.95
6034;BME280;3045;43.226;27.858;2023-07-16T08:39:12;153702.31;;;30.44;95.34
6034;BME280;3045;43.226;27.858;2023-07-16T08:41:40;153698.50;;;30.42;87.88
6034;BME280;3045;43.226;27.858;2023-07-16T08:44:08;153795.97;;;30.80;93.07
6034;BME280;3045;43.226;27.858;2023-07-16T08:46:35;153802.38;;;30.83;90.06
6034;BME280;3045;43.226;27.858;2023-07-16T08:49:03;153804.94;;;30.84;89.84
6034;BME280;3045;43.226;27.858;2023-07-16T08:51:31;153908.84;;;31.25;79.72
6034;BME280;3045;43.226;27.858;2023-07-16T08:53:58;153888.31;;;31.17;79.20
6034;BME280;3045;43.226;27.858;2023-07-16T08:56:27;153862.66;;;31.07;83.87
6034;BME280;3045;43.226;27.858;2023-07-16T08:58:55;153829.28;;;30.94;83.97
6034;BME280;3045;43.226;27.858;2023-07-16T09:01:22;153861.44;;;31.06;83.59
6034;BME280;3045;43.226;27.858;2023-07-16T09:03:49;153908.84;;;31.25;80.30
6034;BME280;3045;43.226;27.858;2023-07-16T09:06:16;153903.75;;;31.23;75.33
6034;BME280;3045;43.226;27.858;2023-07-16T09:08:43;153892.19;;;31.18;79.06
6034;BME280;3045;43.226;27.858;2023-07-16T09:11:11;153876.78;;;31.12;80.24
6034;BME280;3045;43.226;27.858;2023-07-16T09:13:44;153825.47;;;30.92;75.01
6034;BME280;3045;43.226;27.858;2023-07-16T09:16:12;153811.34;;;30.87;75.88
6034;BME280;3045;43.226;27.858;2023-07-16T09:18:42;153802.38;;;30.83;84.36
6034;BME280;3045;43.226;27.858;2023-07-16T09:21:09;153766.47;;;30.69;77.16
6034;BME280;3045;43.226;27.858;2023-07-16T09:23:36;153753.69;;;30.64;81.49
6034;BME280;3045;43.226;27.858;2023-07-16T09:26:04;153731.88;;;30.55;84.91
6034;BME280;3045;43.226;27.858;2023-07-16T09:28:31;153789.53;;;30.78;84.59
6034;BME280;3045;43.226;27.858;2023-07-16T09:31:05;153707.50;;;30.46;92.43
6034;BME280;3045;43.226;27.858;2023-07-16T09:33:32;153769.03;;;30.70;83.99
6034;BME280;3045;43.226;27.858;2023-07-16T09:35:59;153792.13;;;30.79;79.00
6034;BME280;3045;43.226;27.858;2023-07-16T09:38:29;153910.13;;;31.25;76.20
6034;BME280;3045;43.226;27.858;2023-07-16T09:40:56;154025.59;;;31.71;75.60
6034;BME280;3045;43.226;27.858;2023-07-16T09:43:23;154042.31;;;31.78;77.22
6034;BME280;3045;43.226;27.858;2023-07-16T09:45:50;154051.28;;;31.81;77.17
6034;BME280;3045;43.226;27.858;2023-07-16T09:48:19;153987.13;;;31.56;78.00
6034;BME280;3045;43.226;27.858;2023-07-16T09:50:50;153933.22;;;31.35;78.37
6034;BME280;3045;43.226;27.858;2023-07-16T09:53:19;153999.97;;;31.61;78.17
6034;BME280;3045;43.226;27.858;2023-07-16T09:55:48;153981.94;;;31.54;79.85
6034;BME280;3045;43.226;27.858;2023-07-16T09:58:18;153969.09;;;31.49;77.75
6034;BME280;3045;43.226;27.858;2023-07-16T10:00:46;153996.09;;;31.59;81.92
6034;BME280;3045;43.226;27.858;2023-07-16T10:03:15;154026.88;;;31.71;83.40
6034;BME280;3045;43.226;27.858;2023-07-16T10:05:44;153981.94;;;31.54;75.49
6034;BME280;3045;43.226;27.858;2023-07-16T10:08:18;153781.88;;;30.75;91.54
6034;BME280;3045;43.226;27.858;2023-07-16T10:10:48;153628.00;;;30.14;100.00
6034;BME280;3045;43.226;27.858;2023-07-16T10:13:17;153663.88;;;30.28;93.96
6034;BME280;3045;43.226;27.858;2023-07-16T10:16:01;153763.94;;;30.68;100.00
6034;BME280;3045;43.226;27.858;2023-07-16T10:18:29;153695.94;;;30.41;100.00
6034;BME280;3045;43.226;27.858;2023-07-16T10:21:03;153661.31;;;30.27;100.00
6034;BME280;3045;43.226;27.858;2023-07-16T10:23:39;153692.06;;;30.39;100.00
6034;BME280;3045;43.226;27.858;2023-07-16T10:26:07;153551.03;;;29.84;100.00
6034;BME280;3045;43.226;27.858;2023-07-16T10:28:35;153589.56;;;29.99;100.00
6034;BME280;3045;43.226;27.858;2023-07-16T10:31:02;153638.25;;;30.18;99.61
6034;BME280;3045;43.226;27.858;2023-07-16T10:33:29;153636.94;;;30.18;98.62
6034;BME280;3045;43.226;27.858;2023-07-16T10:35:57;153728.03;;;30.54;80.95
6034;BME280;3045;43.226;27.858;2023-07-16T10:38:26;153681.81;;;30.35;96.86
6034;BME280;3045;43.226;27.858;2023-07-16T10:40:53;153674.13;;;30.32;99.32
6034;BME280;3045;43.226;27.858;2023-07-16T10:43:20;153612.63;;;30.08;94.24
6034;BME280;3045;43.226;27.858;2023-07-16T10:45:47;153545.94;;;29.82;97.18
6034;BME280;3045;43.226;27.858;2023-07-16T10:48:14;153545.94;;;29.82;100.00
6034;BME280;3045;43.226;27.858;2023-07-16T10:50:41;153456.25;;;29.46;100.00
6034;BME280;3045;43.226;27.858;2023-07-16T10:53:08;153420.38;;;29.32;100.00
6034;BME280;3045;43.226;27.858;2023-07-16T10:55:36;153353.75;;;29.06;100.00
6034;BME280;3045;43.226;27.858;2023-07-16T10:58:05;153334.50;;;28.98;100.00
6034;BME280;3045;43.226;27.858;2023-07-16T11:00:36;153246.13;;;28.64;100.00
6034;BME280;3045;43.226;27.858;2023-07-16T11:03:03;153274.34;;;28.75;100.00
6034;BME280;3045;43.226;27.858;2023-07-16T11:05:30;153223.09;;;28.54;100.00
6034;BME280;3045;43.226;27.858;2023-07-16T11:07:57;153271.75;;;28.74;100.00
6034;BME280;3045;43.226;27.858;2023-07-16T11:10:24;153253.81;;;28.67;100.00
6034;BME280;3045;43.226;27.858;2023-07-16T11:12:55;153220.50;;;28.53;100.00
6034;BME280;3045;43.226;27.858;2023-07-16T11:15:31;153223.09;;;28.54;100.00
6034;BME280;3045;43.226;27.858;2023-07-16T11:17:58;153176.97;;;28.36;100.00
6034;BME280;3045;43.226;27.858;2023-07-16T11:20:25;153197.47;;;28.44;100.00
6034;BME280;3045;43.226;27.858;2023-07-16T11:22:52;153169.31;;;28.33;100.00
6034;BME280;3045;43.226;27.858;2023-07-16T11:25:19;153200.03;;;28.45;100.00
6034;BME280;3045;43.226;27.858;2023-07-16T11:27:47;153225.66;;;28.55;100.00
6034;BME280;3045;43.226;27.858;2023-07-16T11:30:15;153189.78;;;28.41;100.00
6034;BME280;3045;43.226;27.858;2023-07-16T11:32:45;153139.88;;;28.22;100.00
6034;BME280;3045;43.226;27.858;2023-07-16T11:35:16;153152.63;;;28.27;100.00
6034;BME280;3045;43.226;27.858;2023-07-16T11:37:44;153185.94;;;28.40;100.00
6034;BME280;3045;43.226;27.858;2023-07-16T11:40:14;153179.56;;;28.37;100.00
6034;BME280;3045;43.226;27.858;2023-07-16T11:42:42;153166.75;;;28.32;100.00
6034;BME280;3045;43.226;27.858;2023-07-16T11:45:17;153143.69;;;28.23;100.00
6034;BME280;3045;43.226;27.858;2023-07-16T11:47:44;153165.47;;;28.32;100.00
6034;BME280;3045;43.226;27.858;2023-07-16T11:50:12;153146.25;;;28.24;100.00
6034;BME280;3045;43.226;27.858;2023-07-16T11:52:39;153111.69;;;28.10;100.00
6034;BME280;3045;43.226;27.858;2023-07-16T11:55:06;153038.69;;;27.82;100.00
6034;BME280;3045;43.226;27.858;2023-07-16T11:57:33;153032.31;;;27.79;100.00
6034;BME280;3045;43.226;27.858;2023-07-16T12:00:00;153089.88;;;28.02;100.00
6034;BME280;3045;43.226;27.858;2023-07-16T12:02:28;153064.31;;;27.92;100.00
6034;BME280;3045;43.226;27.858;2023-07-16T12:04:55;153086.06;;;28.00;100.00
6034;BME280;3045;43.226;27.858;2023-07-16T12:07:31;153052.78;;;27.87;100.00
6034;BME280;3045;43.226;27.858;2023-07-16T12:09:58;153078.34;;;27.97;100.00
6034;BME280;3045;43.226;27.858;2023-07-16T12:12:24;153077.06;;;27.97;100.00
6034;BME280;3045;43.226;27.858;2023-07-16T12:14:51;153100.13;;;28.06;100.00
6034;BME280;3045;43.226;27.858;2023-07-16T12:17:18;153098.84;;;28.05;100.00
6034;BME280;3045;43.226;27.858;2023-07-16T12:19:46;153066.84;;;27.93;100.00
6034;BME280;3045;43.226;27.858;2023-07-16T12:22:17;153050.22;;;27.86;100.00
6034;BME280;3045;43.226;27.858;2023-07-16T12:24:44;153070.69;;;27.94;100.00
6034;BME280;3045;43.226;27.858;2023-07-16T12:27:11;153080.94;;;27.98;100.00
6034;BME280;3045;43.226;27.858;2023-07-16T12:29:37;153089.88;;;28.02;100.00
6034;BME280;3045;43.226;27.858;2023-07-16T12:32:05;153052.78;;;27.87;100.00
6034;BME280;3045;43.226;27.858;2023-07-16T12:34:33;153057.88;;;27.89;100.00
6034;BME280;3045;43.226;27.858;2023-07-16T12:37:02;153059.16;;;27.90;100.00
6034;BME280;3045;43.226;27.858;2023-07-16T12:39:29;153084.78;;;28.00;100.00
6034;BME280;3045;43.226;27.858;2023-07-16T12:41:56;153098.84;;;28.05;100.00
6034;BME280;3045;43.226;27.858;2023-07-16T12:44:23;153084.78;;;28.00;100.00
6034;BME280;3045;43.226;27.858;2023-07-16T12:46:49;153056.59;;;27.89;100.00
6034;BME280;3045;43.226;27.858;2023-07-16T12:49:16;153101.41;;;28.06;100.00
6034;BME280;3045;43.226;27.858;2023-07-16T12:51:43;153100.13;;;28.06;100.00
6034;BME280;3045;43.226;27.858;2023-07-16T12:54:11;153133.44;;;28.19;100.00
6034;BME280;3045;43.226;27.858;2023-07-16T12:56:38;153125.78;;;28.16;100.00